AirNav   Pilot Hours Calculator
 
 1418 users online  

08KT Methodist Hospital Union County Heliport
Morganfield, Kentucky, USA

GOING TO MORGANFIELD?


FAA INFORMATION EFFECTIVE 07 NOVEMBER 2019

Location

FAA Identifier: 08KT
Lat/Long: 37-37-42.0000N 087-56-49.2000W
37-37.700000N 087-56.820000W
37.6283333,-87.9470000
(estimated)
Elevation: 435 ft. / 133 m (estimated)
From city: 5 miles E of MORGANFIELD, KY
Time zone: UTC -6 (UTC -5 during Daylight Saving Time)
Zip code: 42437

Heliport Operations

Heliport use: Private use. Permission required prior to landing
Activation date: 11/2015
Control tower: no
ARTCC: INDIANAPOLIS CENTER
FSS: LOUISVILLE FLIGHT SERVICE STATION
Attendance: CONTINUOUS
Wind indicator: lighted
Segmented circle: no
Beacon: white-green-yellow (heliport)
Operates sunset to sunrise.

Heliport Communications

WX AWOS-3 at TWT (5 nm S): 118.775 (270-333-2967)
WX AWOS-3PT at EHR (16 nm NE): 118.85 (270-826-0511)
WX AWOS-3P at 5M9 (19 nm SW): 118.15 (270-965-4877)

Nearby radio navigation aids

VOR radial/distance  VOR name  Freq  Var
PXVr203/20.0POCKET CITY VORTAC113.3003E
CCTr295/35.7CENTRAL CITY VORTAC109.8001W
OWBr263/37.7OWENSBORO VOR/DME108.6004W

Heliport Services

Runway Information

Helipad H1

Dimensions: 40 x 40 ft. / 12 x 12 m
Surface: concrete
Traffic pattern: leftleft

Heliport Ownership and Management from official FAA records

Ownership: Privately-owned
Owner: METHODIST HOSPITAL UNION COUNTY
4604 US HWY 60 WEST
MORGANFIELD, KY 42437
Phone 270-389-5000
Manager: KENNY WRIGHT
4604 US HWY 60 WEST
MORGANFIELD, KY 42437
Phone 270-389-5000

Additional Remarks

FOR CD CTC INDIANAPOLIS ARTCC AT 317-247-2411.

Instrument Procedures

There are no published instrument procedures at 08KT.

Some nearby airports with instrument procedures:

KTWT - Sturgis Municipal Airport (5 nm S)
KEHR - Henderson City-County Airport (16 nm NE)
5M9 - Marion-Crittenden County Airport (19 nm SW)
KCUL - Carmi Municipal Airport (29 nm N)
KHSB - Harrisburg-Raleigh Airport (31 nm W)
 
Loc | Ops | Rwys | IFR | FBO | Links
Com | Nav | Svcs | Stats | Notes
Aerial photo
No photo
 
Airport distance calculator
Flying to Methodist Hospital Union County Heliport? Find the distance to fly.

From to 08KT

Sunrise and sunset
Times for 19-Nov-2019
 Local
(UTC-6)
 Zulu
(UTC)
Morning civil twilight06:0912:09
Sunrise06:3712:37
Sunset16:3722:37
Evening civil twilight17:0623:06

Current date and time
Zulu (UTC)  19-Nov-2019 18:37:36
Local (UTC-6)  19-Nov-2019 12:37:36
 
METAR
KEHR 
17nm NE 
191756Z AUTO 26008KT 10SM BKN038 OVC050 11/07 A2980 RMK AO2 SLP091 T01060067 10106 20067 58000
K5M9 
19nm SW 
191815Z AUTO 30007KT 10SM BKN028 13/06 A2981 RMK AO2 T01250058
KCUL 
29nm N 
191815Z AUTO 29013G17KT 10SM OVC018 10/06 A2980 RMK AO2
KHSB 
31nm W 
191815Z AUTO 30014KT 10SM SCT022 OVC028 12/06 A2981 RMK AO2 T01190059
K2I0 
31nm SE 
191815Z AUTO 27004KT 10SM SCT024 BKN045 BKN070 13/05 A2980 RMK AO2 T01270045
KEVV 
32nm NE 
191754Z 27005KT 6SM -RA FEW019 BKN028 OVC050 09/06 A2980 RMK AO2 RAB29 SLP091 P0002 60002 T00890061 10106 20056 56002
TAF
KEVV 
32nm NE 
191720Z 1918/2018 25010KT P6SM SCT025 BKN050 TEMPO 1918/1920 BKN025 FM192000 30011G19KT P6SM BKN030 FM192300 31008KT P6SM BKN035 FM200300 31003KT P6SM SCT035 FM201500 15004KT P6SM SCT250
KOWB 
37nm E 
191720Z 1918/2018 23007KT P6SM SCT025 BKN050 TEMPO 1918/1921 BKN025 FM192100 30010G18KT P6SM BKN030 FM200000 32007KT P6SM BKN035 FM200400 33003KT P6SM SCT035 FM201500 15004KT P6SM SCT250
NOTAMs
Click for the latest NOTAMs
NOTAMs are issued by the DoD/FAA and will open in a separate window not controlled by AirNav.

 

 
 

Would you like to see your business listed on this page?

 If your business provides an interesting product or service to pilots, flight crews, aircraft, or users of the Methodist Hospital Union County Heliport, you should consider listing it here.  To start the listing process, click on the button below
 
Add a business
 

Other Pages about Methodist Hospital Union County Heliport

Update a link
 
Copyright © AirNav, LLC. All rights reserved. Privacy Policy  Contact